sensor_id;sensor_type;location;lat;lon;timestamp;P1;durP1;ratioP1;P2;durP2;ratioP2
14748;SDS011;7466;53.574;9.976;2023-12-07T00:01:47;202.27;;;60.50;;
14748;SDS011;7466;53.574;9.976;2023-12-07T00:04:14;197.13;;;61.37;;
14748;SDS011;7466;53.574;9.976;2023-12-07T00:06:40;188.83;;;58.33;;
14748;SDS011;7466;53.574;9.976;2023-12-07T00:09:08;187.53;;;59.17;;
14748;SDS011;7466;53.574;9.976;2023-12-07T00:11:35;191.50;;;58.33;;
14748;SDS011;7466;53.574;9.976;2023-12-07T00:14:02;179.00;;;58.17;;
14748;SDS011;7466;53.574;9.976;2023-12-07T00:16:28;195.57;;;62.90;;
14748;SDS011;7466;53.574;9.976;2023-12-07T00:18:55;178.50;;;57.73;;
14748;SDS011;7466;53.574;9.976;2023-12-07T00:21:22;170.73;;;57.60;;
14748;SDS011;7466;53.574;9.976;2023-12-07T00:23:49;163.97;;;55.70;;
14748;SDS011;7466;53.574;9.976;2023-12-07T00:26:17;170.60;;;56.77;;
14748;SDS011;7466;53.574;9.976;2023-12-07T00:28:43;170.83;;;56.73;;
14748;SDS011;7466;53.574;9.976;2023-12-07T00:31:10;163.97;;;57.17;;
14748;SDS011;7466;53.574;9.976;2023-12-07T00:33:37;158.43;;;55.40;;
14748;SDS011;7466;53.574;9.976;2023-12-07T00:36:04;159.60;;;55.07;;
14748;SDS011;7466;53.574;9.976;2023-12-07T00:38:31;159.97;;;56.30;;
14748;SDS011;7466;53.574;9.976;2023-12-07T00:40:58;164.83;;;55.00;;
14748;SDS011;7466;53.574;9.976;2023-12-07T00:43:26;161.20;;;54.00;;
14748;SDS011;7466;53.574;9.976;2023-12-07T00:45:53;161.10;;;54.47;;
14748;SDS011;7466;53.574;9.976;2023-12-07T00:48:19;173.03;;;55.90;;
14748;SDS011;7466;53.574;9.976;2023-12-07T00:50:46;164.40;;;53.40;;
14748;SDS011;7466;53.574;9.976;2023-12-07T00:53:13;168.17;;;56.33;;
14748;SDS011;7466;53.574;9.976;2023-12-07T00:55:40;157.80;;;52.57;;
14748;SDS011;7466;53.574;9.976;2023-12-07T00:58:06;172.40;;;54.60;;
14748;SDS011;7466;53.574;9.976;2023-12-07T01:00:34;157.30;;;53.37;;
14748;SDS011;7466;53.574;9.976;2023-12-07T01:03:01;162.13;;;53.97;;
14748;SDS011;7466;53.574;9.976;2023-12-07T01:05:28;161.23;;;54.37;;
14748;SDS011;7466;53.574;9.976;2023-12-07T01:07:55;165.90;;;53.97;;
14748;SDS011;7466;53.574;9.976;2023-12-07T01:10:21;169.83;;;56.03;;
14748;SDS011;7466;53.574;9.976;2023-12-07T01:12:48;170.13;;;55.77;;
14748;SDS011;7466;53.574;9.976;2023-12-07T01:15:15;168.43;;;57.37;;
14748;SDS011;7466;53.574;9.976;2023-12-07T01:17:43;158.47;;;52.83;;
14748;SDS011;7466;53.574;9.976;2023-12-07T01:20:10;150.20;;;53.53;;
14748;SDS011;7466;53.574;9.976;2023-12-07T01:22:38;161.03;;;54.43;;
14748;SDS011;7466;53.574;9.976;2023-12-07T01:25:05;166.57;;;54.63;;
14748;SDS011;7466;53.574;9.976;2023-12-07T01:27:33;158.63;;;54.07;;
14748;SDS011;7466;53.574;9.976;2023-12-07T01:29:59;149.90;;;52.77;;
14748;SDS011;7466;53.574;9.976;2023-12-07T01:32:26;148.03;;;52.03;;
14748;SDS011;7466;53.574;9.976;2023-12-07T01:34:54;145.17;;;52.37;;
14748;SDS011;7466;53.574;9.976;2023-12-07T01:37:21;148.53;;;53.50;;
14748;SDS011;7466;53.574;9.976;2023-12-07T01:39:48;161.87;;;55.10;;
14748;SDS011;7466;53.574;9.976;2023-12-07T01:42:15;168.73;;;55.43;;
14748;SDS011;7466;53.574;9.976;2023-12-07T01:44:42;159.90;;;51.50;;
14748;SDS011;7466;53.574;9.976;2023-12-07T01:47:08;179.03;;;55.90;;
14748;SDS011;7466;53.574;9.976;2023-12-07T01:49:35;159.27;;;53.27;;
14748;SDS011;7466;53.574;9.976;2023-12-07T01:52:04;170.70;;;54.70;;
14748;SDS011;7466;53.574;9.976;2023-12-07T01:54:32;158.63;;;53.83;;
14748;SDS011;7466;53.574;9.976;2023-12-07T01:56:59;166.97;;;55.87;;
14748;SDS011;7466;53.574;9.976;2023-12-07T01:59:26;173.63;;;56.47;;
14748;SDS011;7466;53.574;9.976;2023-12-07T02:01:53;178.67;;;54.67;;
14748;SDS011;7466;53.574;9.976;2023-12-07T02:04:20;167.07;;;54.13;;
14748;SDS011;7466;53.574;9.976;2023-12-07T02:06:46;170.80;;;52.83;;
14748;SDS011;7466;53.574;9.976;2023-12-07T02:09:14;170.00;;;52.00;;
14748;SDS011;7466;53.574;9.976;2023-12-07T02:11:41;165.33;;;52.60;;
14748;SDS011;7466;53.574;9.976;2023-12-07T02:14:08;172.30;;;52.40;;
14748;SDS011;7466;53.574;9.976;2023-12-07T02:16:36;168.20;;;51.17;;
14748;SDS011;7466;53.574;9.976;2023-12-07T02:19:11;164.77;;;52.73;;
14748;SDS011;7466;53.574;9.976;2023-12-07T02:21:52;168.80;;;52.37;;
14748;SDS011;7466;53.574;9.976;2023-12-07T02:24:26;164.27;;;51.57;;
14748;SDS011;7466;53.574;9.976;2023-12-07T02:27:02;162.37;;;50.90;;
14748;SDS011;7466;53.574;9.976;2023-12-07T02:29:29;178.53;;;53.40;;
14748;SDS011;7466;53.574;9.976;2023-12-07T02:31:55;161.10;;;52.27;;
14748;SDS011;7466;53.574;9.976;2023-12-07T02:34:22;146.97;;;49.97;;
14748;SDS011;7466;53.574;9.976;2023-12-07T02:36:49;154.83;;;52.47;;
14748;SDS011;7466;53.574;9.976;2023-12-07T02:39:19;145.17;;;50.47;;
14748;SDS011;7466;53.574;9.976;2023-12-07T02:41:48;137.07;;;48.60;;
14748;SDS011;7466;53.574;9.976;2023-12-07T02:44:17;138.70;;;48.60;;
14748;SDS011;7466;53.574;9.976;2023-12-07T02:46:44;145.73;;;48.40;;
14748;SDS011;7466;53.574;9.976;2023-12-07T02:49:11;138.50;;;50.30;;
14748;SDS011;7466;53.574;9.976;2023-12-07T02:51:38;133.03;;;49.40;;
14748;SDS011;7466;53.574;9.976;2023-12-07T02:54:04;131.20;;;49.93;;
14748;SDS011;7466;53.574;9.976;2023-12-07T02:56:31;128.57;;;48.53;;
14748;SDS011;7466;53.574;9.976;2023-12-07T02:58:58;121.23;;;46.10;;
14748;SDS011;7466;53.574;9.976;2023-12-07T03:01:26;128.37;;;47.73;;
14748;SDS011;7466;53.574;9.976;2023-12-07T03:03:53;131.03;;;47.20;;
14748;SDS011;7466;53.574;9.976;2023-12-07T03:06:19;126.90;;;49.20;;
14748;SDS011;7466;53.574;9.976;2023-12-07T03:08:46;130.57;;;47.20;;
14748;SDS011;7466;53.574;9.976;2023-12-07T03:11:13;132.27;;;50.13;;
14748;SDS011;7466;53.574;9.976;2023-12-07T03:13:39;124.70;;;48.33;;
14748;SDS011;7466;53.574;9.976;2023-12-07T03:16:09;125.20;;;48.97;;
14748;SDS011;7466;53.574;9.976;2023-12-07T03:18:37;128.07;;;48.33;;
14748;SDS011;7466;53.574;9.976;2023-12-07T03:21:04;129.80;;;50.63;;
14748;SDS011;7466;53.574;9.976;2023-12-07T03:23:31;128.33;;;47.93;;
14748;SDS011;7466;53.574;9.976;2023-12-07T03:25:58;131.53;;;48.90;;
14748;SDS011;7466;53.574;9.976;2023-12-07T03:28:25;127.40;;;48.87;;
14748;SDS011;7466;53.574;9.976;2023-12-07T03:30:51;133.40;;;49.23;;
14748;SDS011;7466;53.574;9.976;2023-12-07T03:33:18;124.47;;;49.23;;
14748;SDS011;7466;53.574;9.976;2023-12-07T03:35:46;124.20;;;50.20;;
14748;SDS011;7466;53.574;9.976;2023-12-07T03:38:14;117.23;;;46.43;;
14748;SDS011;7466;53.574;9.976;2023-12-07T03:40:41;111.80;;;47.97;;
14748;SDS011;7466;53.574;9.976;2023-12-07T03:43:12;118.90;;;48.20;;
14748;SDS011;7466;53.574;9.976;2023-12-07T03:45:39;118.43;;;48.33;;
14748;SDS011;7466;53.574;9.976;2023-12-07T03:48:06;128.87;;;49.83;;
14748;SDS011;7466;53.574;9.976;2023-12-07T03:50:32;115.37;;;48.73;;
14748;SDS011;7466;53.574;9.976;2023-12-07T03:53:00;114.23;;;48.37;;
14748;SDS011;7466;53.574;9.976;2023-12-07T03:55:27;103.23;;;46.97;;
14748;SDS011;7466;53.574;9.976;2023-12-07T03:57:54;109.90;;;46.67;;
14748;SDS011;7466;53.574;9.976;2023-12-07T04:00:20;105.90;;;46.60;;
14748;SDS011;7466;53.574;9.976;2023-12-07T04:02:48;105.13;;;47.00;;
14748;SDS011;7466;53.574;9.976;2023-12-07T04:05:14;108.97;;;47.07;;
14748;SDS011;7466;53.574;9.976;2023-12-07T04:07:41;106.03;;;47.23;;
14748;SDS011;7466;53.574;9.976;2023-12-07T04:10:10;94.47;;;44.97;;
14748;SDS011;7466;53.574;9.976;2023-12-07T04:12:37;104.63;;;46.70;;
14748;SDS011;7466;53.574;9.976;2023-12-07T04:15:05;94.17;;;44.17;;
14748;SDS011;7466;53.574;9.976;2023-12-07T04:17:32;96.90;;;45.27;;
14748;SDS011;7466;53.574;9.976;2023-12-07T04:19:59;90.53;;;44.83;;
14748;SDS011;7466;53.574;9.976;2023-12-07T04:22:26;103.23;;;48.17;;
14748;SDS011;7466;53.574;9.976;2023-12-07T04:24:54;99.37;;;47.00;;
14748;SDS011;7466;53.574;9.976;2023-12-07T04:27:22;94.63;;;44.27;;
14748;SDS011;7466;53.574;9.976;2023-12-07T04:29:48;96.77;;;46.33;;
14748;SDS011;7466;53.574;9.976;2023-12-07T04:32:15;91.40;;;44.53;;
14748;SDS011;7466;53.574;9.976;2023-12-07T04:34:42;95.63;;;45.03;;
14748;SDS011;7466;53.574;9.976;2023-12-07T04:37:08;96.90;;;44.73;;
14748;SDS011;7466;53.574;9.976;2023-12-07T04:39:35;93.03;;;44.50;;
14748;SDS011;7466;53.574;9.976;2023-12-07T04:42:02;97.33;;;44.73;;
14748;SDS011;7466;53.574;9.976;2023-12-07T04:44:31;97.83;;;44.77;;
14748;SDS011;7466;53.574;9.976;2023-12-07T04:46:57;103.80;;;47.20;;
14748;SDS011;7466;53.574;9.976;2023-12-07T04:49:24;103.47;;;46.70;;
14748;SDS011;7466;53.574;9.976;2023-12-07T04:51:51;100.07;;;47.67;;
14748;SDS011;7466;53.574;9.976;2023-12-07T04:54:17;98.40;;;45.73;;
14748;SDS011;7466;53.574;9.976;2023-12-07T04:56:44;100.00;;;46.83;;
14748;SDS011;7466;53.574;9.976;2023-12-07T04:59:11;98.17;;;44.70;;
14748;SDS011;7466;53.574;9.976;2023-12-07T05:01:39;94.27;;;44.33;;
14748;SDS011;7466;53.574;9.976;2023-12-07T05:04:06;100.47;;;46.50;;
14748;SDS011;7466;53.574;9.976;2023-12-07T05:06:32;99.73;;;46.67;;
14748;SDS011;7466;53.574;9.976;2023-12-07T05:09:00;98.13;;;46.73;;
14748;SDS011;7466;53.574;9.976;2023-12-07T05:11:27;99.30;;;43.83;;
14748;SDS011;7466;53.574;9.976;2023-12-07T05:13:54;96.27;;;44.90;;
14748;SDS011;7466;53.574;9.976;2023-12-07T05:16:20;94.73;;;43.37;;
14748;SDS011;7466;53.574;9.976;2023-12-07T05:18:49;89.37;;;43.00;;
14748;SDS011;7466;53.574;9.976;2023-12-07T05:21:16;94.63;;;45.43;;
14748;SDS011;7466;53.574;9.976;2023-12-07T05:23:42;91.93;;;43.60;;
14748;SDS011;7466;53.574;9.976;2023-12-07T05:26:09;92.17;;;43.43;;
14748;SDS011;7466;53.574;9.976;2023-12-07T05:28:36;88.77;;;44.90;;
14748;SDS011;7466;53.574;9.976;2023-12-07T05:31:03;93.83;;;45.23;;
14748;SDS011;7466;53.574;9.976;2023-12-07T05:33:30;86.73;;;43.50;;
14748;SDS011;7466;53.574;9.976;2023-12-07T05:35:58;84.43;;;43.07;;
14748;SDS011;7466;53.574;9.976;2023-12-07T05:38:25;93.77;;;45.27;;
14748;SDS011;7466;53.574;9.976;2023-12-07T05:40:52;92.73;;;44.53;;
14748;SDS011;7466;53.574;9.976;2023-12-07T05:43:18;90.10;;;44.60;;
14748;SDS011;7466;53.574;9.976;2023-12-07T05:45:45;92.27;;;46.43;;
14748;SDS011;7466;53.574;9.976;2023-12-07T05:48:12;89.53;;;45.17;;
14748;SDS011;7466;53.574;9.976;2023-12-07T05:50:39;84.87;;;43.83;;
14748;SDS011;7466;53.574;9.976;2023-12-07T05:53:07;84.87;;;44.37;;
14748;SDS011;7466;53.574;9.976;2023-12-07T05:55:35;81.90;;;44.47;;
14748;SDS011;7466;53.574;9.976;2023-12-07T05:58:02;84.53;;;43.30;;
14748;SDS011;7466;53.574;9.976;2023-12-07T06:00:29;88.63;;;45.93;;
14748;SDS011;7466;53.574;9.976;2023-12-07T06:02:56;81.33;;;45.60;;
14748;SDS011;7466;53.574;9.976;2023-12-07T06:05:23;82.60;;;44.63;;
14748;SDS011;7466;53.574;9.976;2023-12-07T06:07:50;85.40;;;45.50;;
14748;SDS011;7466;53.574;9.976;2023-12-07T06:10:19;81.20;;;44.90;;
14748;SDS011;7466;53.574;9.976;2023-12-07T06:12:46;87.00;;;44.10;;
14748;SDS011;7466;53.574;9.976;2023-12-07T06:15:13;85.63;;;45.70;;
14748;SDS011;7466;53.574;9.976;2023-12-07T06:17:40;84.87;;;45.17;;
14748;SDS011;7466;53.574;9.976;2023-12-07T06:20:06;83.77;;;45.20;;
14748;SDS011;7466;53.574;9.976;2023-12-07T06:22:34;84.83;;;44.53;;
14748;SDS011;7466;53.574;9.976;2023-12-07T06:25:00;90.97;;;46.40;;
14748;SDS011;7466;53.574;9.976;2023-12-07T06:27:28;86.70;;;45.10;;
14748;SDS011;7466;53.574;9.976;2023-12-07T06:29:55;90.80;;;47.20;;
14748;SDS011;7466;53.574;9.976;2023-12-07T06:32:22;87.97;;;46.30;;
14748;SDS011;7466;53.574;9.976;2023-12-07T06:34:49;86.17;;;45.83;;
14748;SDS011;7466;53.574;9.976;2023-12-07T06:37:15;90.13;;;47.90;;
14748;SDS011;7466;53.574;9.976;2023-12-07T06:39:42;90.40;;;46.57;;
14748;SDS011;7466;53.574;9.976;2023-12-07T06:42:09;89.73;;;46.53;;
14748;SDS011;7466;53.574;9.976;2023-12-07T06:44:37;91.03;;;46.43;;
14748;SDS011;7466;53.574;9.976;2023-12-07T06:47:04;90.60;;;45.90;;
14748;SDS011;7466;53.574;9.976;2023-12-07T06:49:31;88.83;;;47.30;;
14748;SDS011;7466;53.574;9.976;2023-12-07T06:51:57;90.00;;;47.77;;
14748;SDS011;7466;53.574;9.976;2023-12-07T06:54:24;84.43;;;46.70;;
14748;SDS011;7466;53.574;9.976;2023-12-07T06:56:51;85.07;;;46.53;;
14748;SDS011;7466;53.574;9.976;2023-12-07T06:59:17;82.10;;;45.70;;
14748;SDS011;7466;53.574;9.976;2023-12-07T07:01:46;90.53;;;48.73;;
14748;SDS011;7466;53.574;9.976;2023-12-07T07:04:13;87.70;;;45.97;;
14748;SDS011;7466;53.574;9.976;2023-12-07T07:06:41;87.37;;;46.50;;
14748;SDS011;7466;53.574;9.976;2023-12-07T07:09:08;84.30;;;47.33;;
14748;SDS011;7466;53.574;9.976;2023-12-07T07:11:34;80.67;;;45.77;;
14748;SDS011;7466;53.574;9.976;2023-12-07T07:14:02;85.70;;;46.60;;
14748;SDS011;7466;53.574;9.976;2023-12-07T07:16:28;83.27;;;47.27;;
14748;SDS011;7466;53.574;9.976;2023-12-07T07:18:58;83.80;;;45.87;;
14748;SDS011;7466;53.574;9.976;2023-12-07T07:21:24;85.67;;;47.10;;
14748;SDS011;7466;53.574;9.976;2023-12-07T07:23:51;90.47;;;50.73;;
14748;SDS011;7466;53.574;9.976;2023-12-07T07:26:18;90.93;;;48.90;;
14748;SDS011;7466;53.574;9.976;2023-12-07T07:28:44;86.60;;;48.07;;
14748;SDS011;7466;53.574;9.976;2023-12-07T07:31:11;86.93;;;48.00;;
14748;SDS011;7466;53.574;9.976;2023-12-07T07:33:38;91.03;;;47.77;;
14748;SDS011;7466;53.574;9.976;2023-12-07T07:36:06;86.83;;;47.03;;
14748;SDS011;7466;53.574;9.976;2023-12-07T07:38:33;85.03;;;46.60;;
14748;SDS011;7466;53.574;9.976;2023-12-07T07:41:00;80.80;;;46.13;;
14748;SDS011;7466;53.574;9.976;2023-12-07T07:43:27;89.50;;;47.37;;
14748;SDS011;7466;53.574;9.976;2023-12-07T07:45:54;85.43;;;45.83;;
14748;SDS011;7466;53.574;9.976;2023-12-07T07:48:21;88.67;;;46.90;;
14748;SDS011;7466;53.574;9.976;2023-12-07T07:50:48;83.70;;;47.03;;
14748;SDS011;7466;53.574;9.976;2023-12-07T07:53:16;85.90;;;48.00;;
14748;SDS011;7466;53.574;9.976;2023-12-07T07:55:43;87.30;;;47.20;;
14748;SDS011;7466;53.574;9.976;2023-12-07T07:58:09;86.13;;;46.77;;
14748;SDS011;7466;53.574;9.976;2023-12-07T08:00:36;83.67;;;46.97;;
14748;SDS011;7466;53.574;9.976;2023-12-07T08:03:03;88.33;;;48.20;;
14748;SDS011;7466;53.574;9.976;2023-12-07T08:05:30;84.23;;;46.67;;
14748;SDS011;7466;53.574;9.976;2023-12-07T08:07:57;88.30;;;48.53;;
14748;SDS011;7466;53.574;9.976;2023-12-07T08:10:25;85.13;;;46.50;;
14748;SDS011;7466;53.574;9.976;2023-12-07T08:12:52;85.73;;;47.63;;
14748;SDS011;7466;53.574;9.976;2023-12-07T08:15:18;82.97;;;45.40;;
14748;SDS011;7466;53.574;9.976;2023-12-07T08:17:46;83.80;;;45.33;;
14748;SDS011;7466;53.574;9.976;2023-12-07T08:20:13;90.13;;;48.77;;
14748;SDS011;7466;53.574;9.976;2023-12-07T08:22:40;85.70;;;47.53;;
14748;SDS011;7466;53.574;9.976;2023-12-07T08:25:07;92.67;;;48.87;;
14748;SDS011;7466;53.574;9.976;2023-12-07T08:27:36;96.47;;;48.07;;
14748;SDS011;7466;53.574;9.976;2023-12-07T08:30:03;96.57;;;49.93;;
14748;SDS011;7466;53.574;9.976;2023-12-07T08:32:31;96.57;;;48.90;;
14748;SDS011;7466;53.574;9.976;2023-12-07T08:34:58;92.13;;;48.57;;
14748;SDS011;7466;53.574;9.976;2023-12-07T08:37:24;94.97;;;49.37;;
14748;SDS011;7466;53.574;9.976;2023-12-07T08:39:51;90.13;;;47.53;;
14748;SDS011;7466;53.574;9.976;2023-12-07T08:42:18;93.73;;;48.43;;
14748;SDS011;7466;53.574;9.976;2023-12-07T08:44:46;86.23;;;47.13;;
14748;SDS011;7466;53.574;9.976;2023-12-07T08:47:12;83.67;;;48.07;;
14748;SDS011;7466;53.574;9.976;2023-12-07T08:49:39;86.87;;;45.53;;
14748;SDS011;7466;53.574;9.976;2023-12-07T08:52:06;86.47;;;47.87;;
14748;SDS011;7466;53.574;9.976;2023-12-07T08:54:33;78.13;;;44.60;;
14748;SDS011;7466;53.574;9.976;2023-12-07T08:57:01;82.00;;;46.43;;
14748;SDS011;7466;53.574;9.976;2023-12-07T08:59:28;74.93;;;43.37;;
14748;SDS011;7466;53.574;9.976;2023-12-07T09:01:56;79.53;;;45.63;;
14748;SDS011;7466;53.574;9.976;2023-12-07T09:04:23;79.13;;;44.90;;
14748;SDS011;7466;53.574;9.976;2023-12-07T09:06:50;79.87;;;46.17;;
14748;SDS011;7466;53.574;9.976;2023-12-07T09:09:16;73.63;;;44.00;;
14748;SDS011;7466;53.574;9.976;2023-12-07T09:11:43;76.77;;;45.50;;
14748;SDS011;7466;53.574;9.976;2023-12-07T09:14:10;76.57;;;45.20;;
14748;SDS011;7466;53.574;9.976;2023-12-07T09:16:42;80.30;;;45.63;;
14748;SDS011;7466;53.574;9.976;2023-12-07T09:19:11;76.73;;;44.17;;
14748;SDS011;7466;53.574;9.976;2023-12-07T09:21:38;82.67;;;46.50;;
14748;SDS011;7466;53.574;9.976;2023-12-07T09:24:05;78.70;;;46.10;;
14748;SDS011;7466;53.574;9.976;2023-12-07T09:26:32;72.77;;;42.57;;
14748;SDS011;7466;53.574;9.976;2023-12-07T09:28:59;80.93;;;46.43;;
14748;SDS011;7466;53.574;9.976;2023-12-07T09:31:26;79.53;;;46.67;;
14748;SDS011;7466;53.574;9.976;2023-12-07T09:33:53;80.10;;;46.50;;
14748;SDS011;7466;53.574;9.976;2023-12-07T09:36:22;75.10;;;44.40;;
14748;SDS011;7466;53.574;9.976;2023-12-07T09:38:52;80.57;;;45.43;;
14748;SDS011;7466;53.574;9.976;2023-12-07T09:41:18;78.77;;;46.30;;
14748;SDS011;7466;53.574;9.976;2023-12-07T09:43:46;79.60;;;46.40;;
14748;SDS011;7466;53.574;9.976;2023-12-07T09:46:13;88.60;;;49.67;;
14748;SDS011;7466;53.574;9.976;2023-12-07T09:48:41;88.63;;;49.20;;
14748;SDS011;7466;53.574;9.976;2023-12-07T09:51:09;88.50;;;50.83;;
14748;SDS011;7466;53.574;9.976;2023-12-07T09:53:38;98.63;;;53.13;;
14748;SDS011;7466;53.574;9.976;2023-12-07T09:56:08;98.43;;;52.43;;
14748;SDS011;7466;53.574;9.976;2023-12-07T09:58:35;96.03;;;51.47;;
14748;SDS011;7466;53.574;9.976;2023-12-07T10:01:02;99.63;;;54.10;;
14748;SDS011;7466;53.574;9.976;2023-12-07T10:03:30;103.27;;;53.20;;
14748;SDS011;7466;53.574;9.976;2023-12-07T10:05:57;107.70;;;52.70;;
14748;SDS011;7466;53.574;9.976;2023-12-07T10:08:25;107.70;;;53.10;;
14748;SDS011;7466;53.574;9.976;2023-12-07T10:11:02;107.20;;;54.80;;
14748;SDS011;7466;53.574;9.976;2023-12-07T10:13:30;114.70;;;56.77;;
14748;SDS011;7466;53.574;9.976;2023-12-07T10:16:09;108.23;;;55.17;;
14748;SDS011;7466;53.574;9.976;2023-12-07T10:18:36;103.47;;;53.00;;
14748;SDS011;7466;53.574;9.976;2023-12-07T10:21:05;105.30;;;52.57;;
14748;SDS011;7466;53.574;9.976;2023-12-07T10:23:33;114.37;;;51.43;;
14748;SDS011;7466;53.574;9.976;2023-12-07T10:25:59;110.63;;;51.73;;
14748;SDS011;7466;53.574;9.976;2023-12-07T10:28:29;96.07;;;50.10;;
14748;SDS011;7466;53.574;9.976;2023-12-07T10:30:55;91.87;;;47.23;;
14748;SDS011;7466;53.574;9.976;2023-12-07T10:33:23;96.60;;;47.70;;
14748;SDS011;7466;53.574;9.976;2023-12-07T10:35:51;85.43;;;45.47;;
14748;SDS011;7466;53.574;9.976;2023-12-07T10:38:18;84.40;;;44.33;;
14748;SDS011;7466;53.574;9.976;2023-12-07T10:40:45;77.40;;;43.67;;
14748;SDS011;7466;53.574;9.976;2023-12-07T10:43:13;74.97;;;42.47;;
14748;SDS011;7466;53.574;9.976;2023-12-07T10:45:44;75.97;;;43.27;;
14748;SDS011;7466;53.574;9.976;2023-12-07T10:48:12;69.43;;;41.17;;
14748;SDS011;7466;53.574;9.976;2023-12-07T10:50:41;72.93;;;41.93;;
14748;SDS011;7466;53.574;9.976;2023-12-07T10:53:10;75.43;;;42.80;;
14748;SDS011;7466;53.574;9.976;2023-12-07T10:55:42;69.87;;;41.17;;
14748;SDS011;7466;53.574;9.976;2023-12-07T10:58:13;74.27;;;42.60;;
14748;SDS011;7466;53.574;9.976;2023-12-07T11:00:43;74.07;;;42.00;;
14748;SDS011;7466;53.574;9.976;2023-12-07T11:03:13;77.43;;;43.87;;
14748;SDS011;7466;53.574;9.976;2023-12-07T11:05:42;74.63;;;42.97;;
14748;SDS011;7466;53.574;9.976;2023-12-07T11:08:11;74.73;;;43.07;;
14748;SDS011;7466;53.574;9.976;2023-12-07T11:10:43;70.97;;;40.90;;
14748;SDS011;7466;53.574;9.976;2023-12-07T11:13:17;67.30;;;40.33;;
14748;SDS011;7466;53.574;9.976;2023-12-07T11:15:50;70.90;;;41.30;;
14748;SDS011;7466;53.574;9.976;2023-12-07T11:18:16;68.43;;;41.37;;
14748;SDS011;7466;53.574;9.976;2023-12-07T11:20:44;69.30;;;42.13;;
14748;SDS011;7466;53.574;9.976;2023-12-07T11:23:15;62.37;;;38.97;;
14748;SDS011;7466;53.574;9.976;2023-12-07T11:25:42;59.93;;;36.63;;
14748;SDS011;7466;53.574;9.976;2023-12-07T11:28:10;61.77;;;40.23;;
14748;SDS011;7466;53.574;9.976;2023-12-07T11:30:38;56.07;;;36.37;;
14748;SDS011;7466;53.574;9.976;2023-12-07T11:33:10;66.77;;;38.97;;
14748;SDS011;7466;53.574;9.976;2023-12-07T11:38:32;67.33;;;39.43;;
14748;SDS011;7466;53.574;9.976;2023-12-07T11:40:59;61.17;;;38.93;;
14748;SDS011;7466;53.574;9.976;2023-12-07T11:43:42;67.97;;;39.57;;
14748;SDS011;7466;53.574;9.976;2023-12-07T11:46:11;63.93;;;40.57;;
14748;SDS011;7466;53.574;9.976;2023-12-07T11:48:40;65.83;;;40.40;;
14748;SDS011;7466;53.574;9.976;2023-12-07T11:51:13;60.10;;;37.27;;
14748;SDS011;7466;53.574;9.976;2023-12-07T11:53:39;61.30;;;37.83;;
14748;SDS011;7466;53.574;9.976;2023-12-07T11:56:07;58.13;;;37.03;;
14748;SDS011;7466;53.574;9.976;2023-12-07T11:58:35;53.37;;;36.07;;
14748;SDS011;7466;53.574;9.976;2023-12-07T12:01:03;54.00;;;35.93;;
14748;SDS011;7466;53.574;9.976;2023-12-07T12:03:31;58.40;;;36.53;;
14748;SDS011;7466;53.574;9.976;2023-12-07T12:06:01;57.83;;;36.97;;
14748;SDS011;7466;53.574;9.976;2023-12-07T12:08:33;66.53;;;39.70;;
14748;SDS011;7466;53.574;9.976;2023-12-07T12:10:59;66.53;;;39.63;;
14748;SDS011;7466;53.574;9.976;2023-12-07T12:13:26;66.70;;;40.03;;
14748;SDS011;7466;53.574;9.976;2023-12-07T12:15:54;76.43;;;41.57;;
14748;SDS011;7466;53.574;9.976;2023-12-07T12:18:22;74.63;;;43.27;;
14748;SDS011;7466;53.574;9.976;2023-12-07T12:20:50;79.37;;;44.50;;
14748;SDS011;7466;53.574;9.976;2023-12-07T12:23:19;77.27;;;43.07;;
14748;SDS011;7466;53.574;9.976;2023-12-07T12:25:45;68.90;;;39.87;;
14748;SDS011;7466;53.574;9.976;2023-12-07T12:28:14;74.63;;;43.87;;
14748;SDS011;7466;53.574;9.976;2023-12-07T12:30:42;71.03;;;42.23;;
14748;SDS011;7466;53.574;9.976;2023-12-07T12:33:10;72.53;;;42.57;;
14748;SDS011;7466;53.574;9.976;2023-12-07T12:35:36;69.93;;;41.00;;
14748;SDS011;7466;53.574;9.976;2023-12-07T12:38:03;69.23;;;39.83;;
14748;SDS011;7466;53.574;9.976;2023-12-07T12:40:37;69.13;;;39.67;;
14748;SDS011;7466;53.574;9.976;2023-12-07T12:43:06;74.83;;;42.47;;
14748;SDS011;7466;53.574;9.976;2023-12-07T12:45:34;75.10;;;43.17;;
14748;SDS011;7466;53.574;9.976;2023-12-07T12:48:01;69.53;;;41.10;;
14748;SDS011;7466;53.574;9.976;2023-12-07T12:50:34;78.27;;;44.13;;
14748;SDS011;7466;53.574;9.976;2023-12-07T12:53:03;70.03;;;40.70;;
14748;SDS011;7466;53.574;9.976;2023-12-07T12:55:31;70.37;;;40.30;;
14748;SDS011;7466;53.574;9.976;2023-12-07T12:58:00;69.60;;;41.23;;
14748;SDS011;7466;53.574;9.976;2023-12-07T13:00:29;71.47;;;42.37;;
14748;SDS011;7466;53.574;9.976;2023-12-07T13:02:55;71.20;;;43.40;;
14748;SDS011;7466;53.574;9.976;2023-12-07T13:05:22;67.13;;;40.93;;
14748;SDS011;7466;53.574;9.976;2023-12-07T13:07:49;69.33;;;40.53;;
14748;SDS011;7466;53.574;9.976;2023-12-07T13:10:16;71.53;;;40.57;;
14748;SDS011;7466;53.574;9.976;2023-12-07T13:12:43;65.80;;;41.80;;
14748;SDS011;7466;53.574;9.976;2023-12-07T13:15:12;65.33;;;41.20;;
14748;SDS011;7466;53.574;9.976;2023-12-07T13:17:40;69.53;;;40.70;;
14748;SDS011;7466;53.574;9.976;2023-12-07T13:20:07;66.00;;;40.50;;
14748;SDS011;7466;53.574;9.976;2023-12-07T13:22:36;67.00;;;39.87;;
14748;SDS011;7466;53.574;9.976;2023-12-07T13:25:03;66.37;;;40.37;;
14748;SDS011;7466;53.574;9.976;2023-12-07T13:27:32;65.70;;;40.10;;
14748;SDS011;7466;53.574;9.976;2023-12-07T13:29:59;69.27;;;40.70;;
14748;SDS011;7466;53.574;9.976;2023-12-07T13:32:27;66.43;;;40.37;;
14748;SDS011;7466;53.574;9.976;2023-12-07T13:34:53;67.13;;;41.87;;
14748;SDS011;7466;53.574;9.976;2023-12-07T13:37:20;70.07;;;41.43;;
14748;SDS011;7466;53.574;9.976;2023-12-07T13:39:47;73.10;;;42.63;;
14748;SDS011;7466;53.574;9.976;2023-12-07T13:42:18;70.27;;;41.17;;
14748;SDS011;7466;53.574;9.976;2023-12-07T13:44:45;72.57;;;42.70;;
14748;SDS011;7466;53.574;9.976;2023-12-07T13:47:11;72.07;;;42.80;;
14748;SDS011;7466;53.574;9.976;2023-12-07T13:49:40;71.87;;;44.10;;
14748;SDS011;7466;53.574;9.976;2023-12-07T13:52:06;73.53;;;43.50;;
14748;SDS011;7466;53.574;9.976;2023-12-07T13:54:33;70.73;;;41.63;;
14748;SDS011;7466;53.574;9.976;2023-12-07T13:57:01;73.50;;;42.97;;
14748;SDS011;7466;53.574;9.976;2023-12-07T13:59:28;76.20;;;41.07;;
14748;SDS011;7466;53.574;9.976;2023-12-07T14:01:55;74.83;;;40.93;;
14748;SDS011;7466;53.574;9.976;2023-12-07T14:04:21;68.13;;;41.57;;
14748;SDS011;7466;53.574;9.976;2023-12-07T14:06:50;70.63;;;41.17;;
14748;SDS011;7466;53.574;9.976;2023-12-07T14:09:17;74.20;;;43.17;;
14748;SDS011;7466;53.574;9.976;2023-12-07T14:11:44;67.90;;;39.13;;
14748;SDS011;7466;53.574;9.976;2023-12-07T14:14:11;69.53;;;40.77;;
14748;SDS011;7466;53.574;9.976;2023-12-07T14:16:38;68.53;;;41.10;;
14748;SDS011;7466;53.574;9.976;2023-12-07T14:19:05;66.43;;;39.70;;
14748;SDS011;7466;53.574;9.976;2023-12-07T14:21:32;71.03;;;40.33;;
14748;SDS011;7466;53.574;9.976;2023-12-07T14:24:00;67.77;;;39.27;;
14748;SDS011;7466;53.574;9.976;2023-12-07T14:26:27;72.77;;;41.23;;
14748;SDS011;7466;53.574;9.976;2023-12-07T14:28:54;71.30;;;41.07;;
14748;SDS011;7466;53.574;9.976;2023-12-07T14:31:20;71.03;;;41.07;;
14748;SDS011;7466;53.574;9.976;2023-12-07T14:33:47;74.67;;;42.17;;
14748;SDS011;7466;53.574;9.976;2023-12-07T14:36:13;80.17;;;44.43;;